createdAt,value
2023-05-12T00:01:16.871Z,100.00
2023-05-12T00:03:44.168Z,100.00
2023-05-12T00:06:11.591Z,100.00
2023-05-12T00:08:38.621Z,100.00
2023-05-12T00:11:05.542Z,100.00
2023-05-12T00:13:32.461Z,100.00
2023-05-12T00:15:59.501Z,100.00
2023-05-12T00:18:28.428Z,100.00
2023-05-12T00:20:55.773Z,100.00
2023-05-12T00:23:23.005Z,100.00
2023-05-12T00:25:50.558Z,100.00
2023-05-12T00:28:18.849Z,100.00
2023-05-12T00:30:46.004Z,100.00
2023-05-12T00:33:13.276Z,100.00
2023-05-12T00:35:40.212Z,100.00
2023-05-12T00:38:07.074Z,100.00
2023-05-12T00:40:33.727Z,100.00
2023-05-12T00:43:00.712Z,100.00
2023-05-12T00:45:29.689Z,100.00
2023-05-12T00:47:57.161Z,100.00
2023-05-12T00:50:24.334Z,100.00
2023-05-12T00:52:51.350Z,100.00
2023-05-12T00:55:18.240Z,100.00
2023-05-12T00:57:45.766Z,100.00
2023-05-12T01:00:13.238Z,100.00
2023-05-12T01:02:40.302Z,100.00
2023-05-12T01:05:07.728Z,100.00
2023-05-12T01:07:34.638Z,100.00
2023-05-12T01:10:01.544Z,100.00
2023-05-12T01:12:28.638Z,100.00
2023-05-12T01:14:56.554Z,100.00
2023-05-12T01:17:29.106Z,100.00
2023-05-12T01:20:00.844Z,100.00
2023-05-12T01:22:31.702Z,100.00
2023-05-12T01:25:06.981Z,100.00
2023-05-12T01:27:34.529Z,100.00
2023-05-12T01:30:03.321Z,100.00
2023-05-12T01:32:30.704Z,100.00
2023-05-12T01:34:57.685Z,100.00
2023-05-12T01:37:27.321Z,100.00
2023-05-12T01:39:54.842Z,100.00
2023-05-12T01:42:21.866Z,100.00
2023-05-12T01:44:48.748Z,100.00
2023-05-12T01:47:16.158Z,100.00
2023-05-12T01:49:43.063Z,100.00
2023-05-12T01:52:09.734Z,100.00
2023-05-12T01:54:36.604Z,100.00
2023-05-12T01:57:03.543Z,100.00
2023-05-12T01:59:30.363Z,100.00
2023-05-12T02:01:57.122Z,100.00
2023-05-12T02:04:24.029Z,100.00
2023-05-12T02:06:52.024Z,100.00
2023-05-12T02:09:18.924Z,100.00
2023-05-12T02:11:45.804Z,100.00
2023-05-12T02:14:12.690Z,100.00
2023-05-12T02:16:39.532Z,100.00
2023-05-12T02:19:06.585Z,100.00
2023-05-12T02:21:33.764Z,100.00
2023-05-12T02:24:00.804Z,100.00
2023-05-12T02:26:27.718Z,100.00
2023-05-12T02:28:54.670Z,100.00
2023-05-12T02:31:21.523Z,100.00
2023-05-12T02:33:48.665Z,100.00
2023-05-12T02:36:15.518Z,100.00
2023-05-12T02:38:42.243Z,100.00
2023-05-12T02:41:09.076Z,100.00
2023-05-12T02:43:35.777Z,100.00
2023-05-12T02:46:02.875Z,100.00
2023-05-12T02:48:29.738Z,100.00
2023-05-12T02:50:56.391Z,100.00
2023-05-12T02:53:23.268Z,100.00
2023-05-12T02:55:50.323Z,100.00
2023-05-12T02:58:17.207Z,100.00
2023-05-12T03:00:44.158Z,100.00
2023-05-12T03:03:11.296Z,100.00
2023-05-12T03:05:38.343Z,100.00
2023-05-12T03:08:05.444Z,100.00
2023-05-12T03:10:32.277Z,100.00
2023-05-12T03:12:58.935Z,100.00
2023-05-12T03:15:25.758Z,100.00
2023-05-12T03:17:52.457Z,100.00
2023-05-12T03:20:19.907Z,100.00
2023-05-12T03:22:47.078Z,100.00
2023-05-12T03:25:14.294Z,100.00
2023-05-12T03:27:41.174Z,100.00
2023-05-12T03:30:08.649Z,100.00
2023-05-12T03:32:35.558Z,100.00
2023-05-12T03:35:02.518Z,100.00
2023-05-12T03:37:29.388Z,100.00
2023-05-12T03:39:56.357Z,100.00
2023-05-12T03:42:26.269Z,100.00
2023-05-12T03:44:53.149Z,100.00
2023-05-12T03:47:20.084Z,100.00
2023-05-12T03:49:47.008Z,100.00
2023-05-12T03:52:14.236Z,100.00
2023-05-12T03:54:41.155Z,100.00
2023-05-12T03:57:08.333Z,100.00
2023-05-12T03:59:35.235Z,100.00
2023-05-12T04:02:02.290Z,100.00
2023-05-12T04:04:29.214Z,100.00
2023-05-12T04:06:56.428Z,100.00
2023-05-12T04:09:23.298Z,100.00
2023-05-12T04:11:50.169Z,100.00
2023-05-12T04:14:17.006Z,100.00
2023-05-12T04:16:43.736Z,100.00
2023-05-12T04:19:10.727Z,100.00
2023-05-12T04:21:37.586Z,100.00
2023-05-12T04:24:04.397Z,100.00
2023-05-12T04:26:31.249Z,100.00
2023-05-12T04:28:57.872Z,100.00
2023-05-12T04:31:24.859Z,100.00
2023-05-12T04:33:52.111Z,100.00
2023-05-12T04:36:19.140Z,100.00
2023-05-12T04:38:45.999Z,100.00
2023-05-12T04:41:12.693Z,100.00
2023-05-12T04:46:09.341Z,100.00
2023-05-12T04:48:42.095Z,100.00
2023-05-12T04:51:09.313Z,100.00
2023-05-12T04:53:36.476Z,100.00
2023-05-12T04:56:03.880Z,100.00
2023-05-12T04:58:30.745Z,100.00
2023-05-12T05:00:57.709Z,100.00
2023-05-12T05:03:24.912Z,100.00
2023-05-12T05:05:51.879Z,100.00
2023-05-12T05:08:18.867Z,100.00
2023-05-12T05:10:45.805Z,100.00
2023-05-12T05:13:12.613Z,100.00
2023-05-12T05:15:39.315Z,100.00
2023-05-12T05:18:06.321Z,100.00
2023-05-12T05:20:34.729Z,100.00
2023-05-12T05:23:01.743Z,100.00
2023-05-12T05:25:28.509Z,100.00
2023-05-12T05:27:55.927Z,100.00
2023-05-12T05:30:22.820Z,100.00
2023-05-12T05:32:49.844Z,100.00
2023-05-12T05:35:16.950Z,100.00
2023-05-12T05:37:43.860Z,100.00
2023-05-12T05:40:10.889Z,100.00
2023-05-12T05:42:37.813Z,100.00
2023-05-12T05:45:05.096Z,100.00
2023-05-12T05:47:32.424Z,100.00
2023-05-12T05:52:05.290Z,100.00
2023-05-12T05:54:32.132Z,100.00
2023-05-12T05:57:00.838Z,100.00
2023-05-12T05:59:27.716Z,100.00
2023-05-12T06:01:54.658Z,100.00
2023-05-12T06:04:21.734Z,100.00
2023-05-12T06:06:48.742Z,100.00
2023-05-12T06:09:16.824Z,100.00
2023-05-12T06:11:43.663Z,100.00
2023-05-12T06:14:12.671Z,100.00
2023-05-12T06:16:39.880Z,100.00
2023-05-12T06:19:06.905Z,100.00
2023-05-12T06:21:33.987Z,100.00
2023-05-12T06:24:00.882Z,100.00
2023-05-12T06:26:27.699Z,100.00
2023-05-12T06:28:56.380Z,100.00
2023-05-12T06:31:23.330Z,100.00
2023-05-12T06:33:50.289Z,100.00
2023-05-12T06:49:19.289Z,100.00
2023-05-12T06:51:46.698Z,100.00
2023-05-12T06:54:13.653Z,100.00
2023-05-12T06:56:40.529Z,100.00
2023-05-12T06:59:07.419Z,100.00
2023-05-12T07:01:34.415Z,100.00
2023-05-12T07:04:01.425Z,100.00
2023-05-12T07:06:28.326Z,100.00
2023-05-12T07:08:56.327Z,100.00
2023-05-12T07:11:23.413Z,100.00
2023-05-12T07:13:50.980Z,100.00
2023-05-12T07:16:19.038Z,100.00
2023-05-12T07:18:46.479Z,100.00
2023-05-12T07:21:13.532Z,100.00
2023-05-12T07:23:40.737Z,100.00
2023-05-12T07:26:08.175Z,100.00
2023-05-12T07:28:36.817Z,100.00
2023-05-12T07:31:07.608Z,100.00
2023-05-12T07:33:35.623Z,100.00
2023-05-12T07:36:02.943Z,100.00
2023-05-12T07:38:32.338Z,100.00
2023-05-12T07:41:00.781Z,100.00
2023-05-12T07:43:27.775Z,100.00
2023-05-12T07:45:56.248Z,100.00
2023-05-12T07:48:23.151Z,100.00
2023-05-12T07:50:49.976Z,100.00
2023-05-12T07:53:16.662Z,100.00
2023-05-12T07:55:44.230Z,100.00
2023-05-12T07:58:12.480Z,100.00
2023-05-12T08:00:39.688Z,100.00
2023-05-12T08:03:07.830Z,100.00
2023-05-12T08:05:34.815Z,100.00
2023-05-12T08:08:01.716Z,100.00
2023-05-12T08:10:30.074Z,100.00
2023-05-12T08:12:57.151Z,100.00
2023-05-12T08:15:24.144Z,100.00
2023-05-12T08:17:51.016Z,100.00
2023-05-12T08:20:17.886Z,100.00
2023-05-12T08:22:44.823Z,100.00
2023-05-12T08:25:12.687Z,100.00
2023-05-12T08:27:39.793Z,100.00
2023-05-12T08:30:07.216Z,100.00
2023-05-12T08:32:34.163Z,100.00
2023-05-12T08:35:01.522Z,100.00
2023-05-12T08:37:28.398Z,100.00
2023-05-12T08:39:57.930Z,100.00
2023-05-12T08:42:31.886Z,100.00
2023-05-12T08:45:00.739Z,100.00
2023-05-12T08:47:27.712Z,100.00
2023-05-12T08:50:03.355Z,100.00
2023-05-12T08:52:34.795Z,100.00
2023-05-12T08:55:03.513Z,100.00
2023-05-12T08:57:31.553Z,100.00
2023-05-12T09:00:05.501Z,100.00
2023-05-12T09:02:44.724Z,100.00
2023-05-12T09:05:19.378Z,100.00
2023-05-12T09:07:47.251Z,100.00
2023-05-12T09:10:33.554Z,100.00
2023-05-12T09:13:13.229Z,100.00
2023-05-12T09:15:43.176Z,100.00
2023-05-12T09:18:10.116Z,100.00
2023-05-12T09:20:37.182Z,100.00
2023-05-12T09:23:20.463Z,100.00
2023-05-12T09:25:47.469Z,100.00
2023-05-12T09:28:14.776Z,100.00
2023-05-12T09:30:42.847Z,100.00
2023-05-12T09:33:11.798Z,100.00
2023-05-12T09:35:42.951Z,100.00
2023-05-12T09:38:11.843Z,100.00
2023-05-12T09:40:38.951Z,100.00
2023-05-12T09:43:06.210Z,100.00
2023-05-12T09:45:36.979Z,100.00
2023-05-12T09:48:11.653Z,100.00
2023-05-12T09:50:48.761Z,100.00
2023-05-12T09:53:17.990Z,100.00
2023-05-12T09:55:46.249Z,100.00
2023-05-12T09:58:16.904Z,100.00
2023-05-12T10:01:12.976Z,100.00
2023-05-12T10:03:32.329Z,100.00
2023-05-12T10:06:01.721Z,100.00
2023-05-12T10:08:38.352Z,100.00
2023-05-12T10:11:06.974Z,100.00
2023-05-12T10:13:34.241Z,100.00
2023-05-12T10:16:01.730Z,100.00
2023-05-12T10:18:28.602Z,100.00
2023-05-12T10:20:56.905Z,100.00
2023-05-12T10:23:23.857Z,100.00
2023-05-12T10:25:50.905Z,100.00
2023-05-12T10:28:17.881Z,100.00
2023-05-12T10:30:45.521Z,100.00
2023-05-12T10:33:12.704Z,100.00
2023-05-12T10:35:40.308Z,100.00
2023-05-12T10:38:20.852Z,100.00
2023-05-12T10:40:59.456Z,100.00
2023-05-12T10:43:28.108Z,100.00
2023-05-12T10:46:13.336Z,100.00
2023-05-12T10:49:04.465Z,100.00
2023-05-12T10:51:33.344Z,100.00
2023-05-12T10:54:07.974Z,100.00
2023-05-12T10:56:38.417Z,100.00
2023-05-12T10:59:25.433Z,100.00
2023-05-12T11:02:15.731Z,100.00
2023-05-12T11:04:55.719Z,100.00
2023-05-12T11:07:24.926Z,100.00
2023-05-12T11:09:57.732Z,100.00
2023-05-12T11:12:27.427Z,100.00
2023-05-12T11:14:54.689Z,100.00
2023-05-12T11:17:21.714Z,100.00
2023-05-12T11:19:50.667Z,100.00
2023-05-12T11:22:22.247Z,100.00
2023-05-12T11:24:50.277Z,100.00
2023-05-12T11:27:19.637Z,100.00
2023-05-12T11:30:00.246Z,100.00
2023-05-12T11:32:27.774Z,100.00
2023-05-12T11:34:54.785Z,100.00
2023-05-12T11:37:22.555Z,100.00
2023-05-12T11:39:49.528Z,100.00
2023-05-12T11:42:20.063Z,100.00
2023-05-12T11:44:48.592Z,100.00
2023-05-12T11:47:16.740Z,100.00
2023-05-12T11:49:54.836Z,100.00
2023-05-12T11:52:23.718Z,100.00
2023-05-12T11:54:57.585Z,100.00
2023-05-12T11:57:28.669Z,100.00
2023-05-12T12:00:08.039Z,100.00
2023-05-12T12:02:36.944Z,100.00
2023-05-12T12:05:07.863Z,100.00
2023-05-12T12:07:36.968Z,100.00
2023-05-12T12:10:16.914Z,100.00
2023-05-12T12:12:44.600Z,100.00
2023-05-12T12:15:12.234Z,100.00
2023-05-12T12:17:40.207Z,100.00
2023-05-12T12:20:08.505Z,100.00
2023-05-12T12:22:35.638Z,100.00
2023-05-12T12:25:03.649Z,100.00
2023-05-12T12:27:30.692Z,100.00
2023-05-12T12:29:57.561Z,100.00
2023-05-12T12:32:24.504Z,100.00
2023-05-12T12:34:52.057Z,100.00
2023-05-12T12:37:18.984Z,100.00
2023-05-12T12:39:48.222Z,100.00
2023-05-12T12:42:18.275Z,100.00
2023-05-12T12:44:46.273Z,100.00
2023-05-12T12:47:13.702Z,100.00
2023-05-12T12:49:40.648Z,100.00
2023-05-12T12:52:07.795Z,100.00
2023-05-12T12:54:35.054Z,100.00
2023-05-12T12:57:01.921Z,100.00
2023-05-12T12:59:29.791Z,100.00
2023-05-12T13:02:00.112Z,100.00
2023-05-12T13:04:27.291Z,100.00
2023-05-12T13:06:54.144Z,100.00
2023-05-12T13:09:23.676Z,100.00
2023-05-12T13:11:54.202Z,100.00
2023-05-12T13:16:57.152Z,100.00
2023-05-12T13:22:57.167Z,100.00
2023-05-12T13:25:30.248Z,100.00
2023-05-12T13:27:57.349Z,100.00
2023-05-12T13:30:27.493Z,100.00
2023-05-12T13:33:00.414Z,100.00
2023-05-12T13:35:27.500Z,100.00
2023-05-12T13:43:07.607Z,100.00
2023-05-12T13:45:34.755Z,100.00
2023-05-12T13:48:01.773Z,100.00
2023-05-12T13:50:28.641Z,100.00
2023-05-12T13:52:55.520Z,100.00
2023-05-12T13:55:22.503Z,100.00
2023-05-12T13:57:49.539Z,100.00
2023-05-12T14:00:19.780Z,100.00
2023-05-12T14:02:46.765Z,100.00
2023-05-12T14:05:13.755Z,100.00
2023-05-12T14:07:42.732Z,100.00
2023-05-12T14:10:10.532Z,100.00
2023-05-12T14:12:37.413Z,100.00
2023-05-12T14:15:19.902Z,100.00
2023-05-12T14:17:51.628Z,100.00
2023-05-12T14:20:18.536Z,100.00
2023-05-12T14:22:45.405Z,100.00
2023-05-12T14:25:12.233Z,100.00
2023-05-12T14:27:39.017Z,100.00
2023-05-12T14:30:07.737Z,100.00
2023-05-12T14:32:34.693Z,100.00
2023-05-12T14:35:01.575Z,100.00
2023-05-12T14:37:28.457Z,100.00
2023-05-12T14:39:56.826Z,100.00
2023-05-12T14:42:23.960Z,100.00
2023-05-12T14:44:50.814Z,100.00
2023-05-12T14:47:17.976Z,100.00
2023-05-12T14:49:46.208Z,100.00
2023-05-12T14:52:13.081Z,100.00
2023-05-12T14:54:39.963Z,100.00
2023-05-12T14:57:07.187Z,100.00
2023-05-12T14:59:35.078Z,100.00
2023-05-12T15:02:02.127Z,100.00
2023-05-12T15:04:29.034Z,100.00
2023-05-12T15:06:55.919Z,100.00
2023-05-12T15:09:23.881Z,100.00
2023-05-12T15:11:51.702Z,100.00
2023-05-12T15:14:18.620Z,100.00
2023-05-12T15:16:45.517Z,100.00
2023-05-12T15:19:14.228Z,100.00
2023-05-12T15:21:44.317Z,100.00
2023-05-12T15:24:11.173Z,100.00
2023-05-12T15:26:40.274Z,100.00
2023-05-12T15:29:07.586Z,100.00
2023-05-12T15:31:35.275Z,100.00
2023-05-12T15:34:02.236Z,100.00
2023-05-12T15:36:29.698Z,100.00
2023-05-12T15:39:03.851Z,100.00
2023-05-12T15:41:30.838Z,100.00
2023-05-12T15:43:57.818Z,100.00
2023-05-12T15:46:24.711Z,100.00
2023-05-12T15:48:55.095Z,100.00
2023-05-12T15:51:21.992Z,100.00
2023-05-12T15:53:51.065Z,100.00
2023-05-12T15:56:17.931Z,100.00
2023-05-12T15:58:46.963Z,100.00
2023-05-12T16:01:14.364Z,100.00
2023-05-12T16:03:42.758Z,100.00
2023-05-12T16:06:09.899Z,100.00
2023-05-12T16:08:38.802Z,100.00
2023-05-12T16:11:09.679Z,100.00
2023-05-12T16:13:37.355Z,100.00
2023-05-12T16:16:06.162Z,100.00
2023-05-12T16:18:37.522Z,100.00
2023-05-12T16:21:10.033Z,100.00
2023-05-12T16:26:20.109Z,100.00
2023-05-12T16:29:07.072Z,100.00
2023-05-12T16:31:34.629Z,100.00
2023-05-12T16:34:03.576Z,100.00
2023-05-12T16:36:31.955Z,100.00
2023-05-12T16:38:59.849Z,100.00
2023-05-12T16:41:28.692Z,100.00
2023-05-12T16:43:55.762Z,100.00
2023-05-12T16:46:22.701Z,100.00
2023-05-12T16:48:49.603Z,100.00
2023-05-12T16:51:16.449Z,100.00
2023-05-12T16:53:43.437Z,100.00
2023-05-12T16:56:10.464Z,100.00
2023-05-12T16:58:37.394Z,100.00
2023-05-12T17:01:04.962Z,100.00
2023-05-12T17:03:32.075Z,100.00
2023-05-12T17:05:59.143Z,100.00
2023-05-12T17:08:37.017Z,100.00
2023-05-12T17:11:05.196Z,100.00
2023-05-12T17:13:35.816Z,100.00
2023-05-12T17:16:02.882Z,100.00
2023-05-12T17:21:22.567Z,100.00
2023-05-12T17:23:49.429Z,100.00
2023-05-12T17:26:16.685Z,100.00
2023-05-12T17:28:57.730Z,100.00
2023-05-12T17:31:24.623Z,100.00
2023-05-12T17:33:51.497Z,100.00
2023-05-12T17:36:18.881Z,100.00
2023-05-12T17:38:46.333Z,100.00
2023-05-12T17:41:13.666Z,100.00
2023-05-12T17:43:41.582Z,100.00
2023-05-12T17:46:09.303Z,100.00
2023-05-12T17:49:04.288Z,100.00
2023-05-12T17:51:31.161Z,100.00
2023-05-12T17:53:58.021Z,100.00
2023-05-12T17:56:24.931Z,100.00
2023-05-12T17:58:51.817Z,100.00
2023-05-12T18:01:18.746Z,100.00
2023-05-12T18:03:46.103Z,100.00
2023-05-12T18:06:15.076Z,100.00
2023-05-12T18:08:41.952Z,100.00
2023-05-12T18:11:08.795Z,100.00
2023-05-12T18:13:35.651Z,100.00
2023-05-12T18:16:02.551Z,100.00
2023-05-12T18:18:29.871Z,100.00
2023-05-12T18:20:56.966Z,100.00
2023-05-12T18:23:23.832Z,100.00
2023-05-12T18:25:51.283Z,100.00
2023-05-12T18:28:18.188Z,100.00
2023-05-12T18:30:45.149Z,100.00
2023-05-12T18:33:12.036Z,100.00
2023-05-12T18:35:38.963Z,100.00
2023-05-12T18:38:07.238Z,99.03
2023-05-12T18:40:34.710Z,100.00
2023-05-12T18:43:02.071Z,99.06
2023-05-12T18:45:28.973Z,100.00
2023-05-12T18:47:55.970Z,100.00
2023-05-12T18:50:23.053Z,100.00
2023-05-12T18:52:49.938Z,100.00
2023-05-12T18:55:16.806Z,100.00
2023-05-12T18:57:43.627Z,100.00
2023-05-12T19:00:10.547Z,100.00
2023-05-12T19:02:37.640Z,100.00
2023-05-12T19:05:04.832Z,100.00
2023-05-12T19:07:31.709Z,100.00
2023-05-12T19:09:58.557Z,100.00
2023-05-12T19:12:25.609Z,100.00
2023-05-12T19:14:52.476Z,100.00
2023-05-12T19:17:19.440Z,100.00
2023-05-12T19:19:46.294Z,100.00
2023-05-12T19:22:13.131Z,100.00
2023-05-12T19:24:40.076Z,100.00
2023-05-12T19:27:06.946Z,100.00
2023-05-12T19:29:33.816Z,100.00
2023-05-12T19:32:00.806Z,100.00
2023-05-12T19:34:29.651Z,100.00
2023-05-12T19:36:58.391Z,100.00
2023-05-12T19:39:25.276Z,100.00
2023-05-12T19:41:52.145Z,100.00
2023-05-12T19:44:19.187Z,100.00
2023-05-12T19:46:48.809Z,100.00
2023-05-12T19:49:15.922Z,100.00
2023-05-12T19:51:42.792Z,100.00
2023-05-12T19:54:10.305Z,100.00
2023-05-12T19:56:37.536Z,100.00
2023-05-12T19:59:04.417Z,100.00
2023-05-12T20:01:31.446Z,100.00
2023-05-12T20:03:58.353Z,100.00
2023-05-12T20:06:25.290Z,100.00
2023-05-12T20:08:52.723Z,100.00
2023-05-12T20:11:19.581Z,100.00
2023-05-12T20:13:46.398Z,100.00
2023-05-12T20:16:13.102Z,100.00
2023-05-12T20:18:40.521Z,100.00
2023-05-12T20:21:07.365Z,100.00
2023-05-12T20:23:34.179Z,100.00
2023-05-12T20:26:00.903Z,100.00
2023-05-12T20:28:28.456Z,100.00
2023-05-12T20:30:55.331Z,100.00
2023-05-12T20:33:22.377Z,100.00
2023-05-12T20:35:49.234Z,100.00
2023-05-12T20:38:16.190Z,100.00
2023-05-12T20:40:43.012Z,100.00
2023-05-12T20:43:09.865Z,100.00
2023-05-12T20:45:37.094Z,100.00
2023-05-12T20:48:04.737Z,100.00
2023-05-12T20:50:31.779Z,100.00
2023-05-12T20:52:58.728Z,100.00
2023-05-12T20:55:25.924Z,100.00
2023-05-12T20:57:52.904Z,100.00
2023-05-12T21:00:19.935Z,100.00
2023-05-12T21:02:49.900Z,100.00
2023-05-12T21:05:16.785Z,100.00
2023-05-12T21:07:43.622Z,100.00
2023-05-12T21:10:10.633Z,100.00
2023-05-12T21:12:37.734Z,100.00
2023-05-12T21:15:05.037Z,100.00
2023-05-12T21:17:31.988Z,100.00
2023-05-12T21:19:59.377Z,100.00
2023-05-12T21:22:26.882Z,100.00
2023-05-12T21:24:53.692Z,100.00
2023-05-12T21:27:20.327Z,100.00
2023-05-12T21:29:47.160Z,100.00
2023-05-12T21:32:14.071Z,100.00
2023-05-12T21:34:40.971Z,100.00
2023-05-12T21:37:07.858Z,100.00
2023-05-12T21:39:34.698Z,100.00
2023-05-12T21:42:01.756Z,100.00
2023-05-12T21:44:28.577Z,100.00
2023-05-12T21:46:55.207Z,100.00
2023-05-12T21:49:22.141Z,100.00
2023-05-12T21:51:49.019Z,100.00
2023-05-12T21:54:15.859Z,100.00
2023-05-12T21:56:43.130Z,100.00
2023-05-12T21:59:10.013Z,100.00
2023-05-12T22:01:37.074Z,100.00
2023-05-12T22:04:05.142Z,100.00
2023-05-12T22:06:32.328Z,100.00
2023-05-12T22:08:59.169Z,100.00
2023-05-12T22:11:26.074Z,100.00
2023-05-12T22:13:52.920Z,100.00
2023-05-12T22:16:23.642Z,100.00
2023-05-12T22:18:53.016Z,100.00
2023-05-12T22:21:19.864Z,100.00
2023-05-12T22:23:46.530Z,100.00
2023-05-12T22:26:13.394Z,100.00
2023-05-12T22:28:40.349Z,100.00
2023-05-12T22:31:07.158Z,100.00
2023-05-12T22:33:34.465Z,100.00
2023-05-12T22:36:01.774Z,100.00
2023-05-12T22:38:28.627Z,100.00
2023-05-12T22:40:55.569Z,100.00
2023-05-12T22:43:22.513Z,100.00
2023-05-12T22:45:52.668Z,100.00
2023-05-12T22:48:20.057Z,100.00
2023-05-12T22:50:46.974Z,100.00
2023-05-12T22:53:14.298Z,100.00
2023-05-12T22:55:41.416Z,100.00
2023-05-12T22:58:08.359Z,100.00
2023-05-12T23:00:35.254Z,100.00
2023-05-12T23:03:03.457Z,99.95
2023-05-12T23:05:30.393Z,100.00
2023-05-12T23:07:57.268Z,99.93
2023-05-12T23:10:24.298Z,98.11
2023-05-12T23:12:51.295Z,98.87
2023-05-12T23:15:18.728Z,98.55
2023-05-12T23:17:45.623Z,97.87
2023-05-12T23:20:12.908Z,100.00
2023-05-12T23:22:39.754Z,99.18
2023-05-12T23:25:07.153Z,98.96
2023-05-12T23:27:34.096Z,96.99
2023-05-12T23:30:00.912Z,95.55
2023-05-12T23:32:27.811Z,95.53
2023-05-12T23:34:54.791Z,99.79
2023-05-12T23:37:21.848Z,100.00
2023-05-12T23:39:48.697Z,96.94
2023-05-12T23:42:15.582Z,98.68
2023-05-12T23:44:42.402Z,99.23
2023-05-12T23:47:09.306Z,97.49
2023-05-12T23:49:36.253Z,96.58
2023-05-12T23:52:03.171Z,97.30
2023-05-12T23:54:29.998Z,95.91
2023-05-12T23:56:56.888Z,95.82
2023-05-12T23:59:23.739Z,96.60
